Time;durP1;ratioP1;P1;durP2;ratioP2;P2;SDS_P1;SDS_P2;PMS_P1;PMS_P2;Temp;Humidity;BMP_temperature;BMP_pressure;BME280_temperature;BME280_humidity;BME280_pressure;Samples;Min_cycle;Max_cycle;Signal;HPM_P1;HPM_P2
2023/12/22 00:01:50;;;;;;;1.10;0.40;;;;;;;-1.98;77.24;97143.66;6076164;29;20052;-66
2023/12/22 00:04:52;;;;;;;0.90;0.60;;;;;;;-2.08;77.56;97144.63;6077100;29;20537;-65
2023/12/22 00:07:56;;;;;;;0.90;0.52;;;;;;;-2.04;77.34;97148.84;6077410;29;20055;-66
2023/12/22 00:10:57;;;;;;;2.08;0.80;;;;;;;-2.17;77.93;97155.03;6077286;29;20048;-66
2023/12/22 00:14:01;;;;;;;1.48;0.82;;;;;;;-2.22;77.50;97159.38;6077142;29;20060;-66
2023/12/22 00:17:08;;;;;;;1.20;0.85;;;;;;;-2.25;78.13;97162.81;6077231;29;20052;-65
2023/12/22 00:20:13;;;;;;;1.35;0.75;;;;;;;-2.04;77.46;97166.91;6076490;29;20511;-66
2023/12/22 00:23:16;;;;;;;2.15;0.80;;;;;;;-2.11;77.95;97144.66;6076531;29;20052;-66
2023/12/22 00:26:17;;;;;;;1.05;0.90;;;;;;;-2.23;78.14;97140.47;6076853;29;20056;-66
2023/12/22 00:29:22;;;;;;;3.60;2.03;;;;;;;-2.28;78.49;97148.25;6076940;29;20071;-66
2023/12/22 00:32:23;;;;;;;1.30;1.10;;;;;;;-2.16;77.99;97147.25;6076701;29;20044;-66
2023/12/22 00:35:27;;;;;;;;;;;;;;;-2.18;78.42;97137.84;6077299;29;20049;-66
2023/12/22 00:38:28;;;;;;;1.00;0.75;;;;;;;-2.40;78.63;97130.34;6076781;29;19930;-66
2023/12/22 00:41:34;;;;;;;1.95;0.90;;;;;;;-2.44;78.73;97136.38;6076230;29;20643;-66
2023/12/22 00:44:40;;;;;;;1.52;0.98;;;;;;;-2.49;79.64;97139.00;6076462;29;20044;-67
2023/12/22 00:47:45;;;;;;;2.28;1.08;;;;;;;-2.46;79.10;97127.81;6076492;29;20049;-66
2023/12/22 00:50:47;;;;;;;0.90;0.90;;;;;;;-2.54;79.18;97140.75;6076156;29;20057;-66
2023/12/22 00:53:49;;;;;;;1.20;1.10;;;;;;;-2.61;79.34;97138.25;6076127;29;20546;-66
2023/12/22 00:56:50;;;;;;;1.13;1.02;;;;;;;-2.66;79.97;97135.72;6059407;29;20059;-65
2023/12/22 00:59:57;;;;;;;2.03;1.40;;;;;;;-2.74;79.73;97140.94;6081333;29;20056;-66
2023/12/22 01:03:03;;;;;;;2.25;0.95;;;;;;;-2.54;79.27;97139.91;6103744;29;20115;-66
2023/12/22 01:06:07;;;;;;;2.92;1.60;;;;;;;-2.69;79.56;97151.19;6104384;29;20048;-66
2023/12/22 01:09:09;;;;;;;1.90;1.35;;;;;;;-2.73;79.89;97145.22;6104259;29;20052;-66
2023/12/22 01:12:12;;;;;;;3.78;1.40;;;;;;;-2.81;79.82;97157.28;6103818;29;20047;-67
2023/12/22 01:15:16;;;;;;;1.85;1.10;;;;;;;-2.84;79.59;97157.31;6103640;29;20703;-67
2023/12/22 01:18:17;;;;;;;1.75;1.50;;;;;;;-2.86;79.90;97159.06;6103660;29;20048;-66
2023/12/22 01:21:21;;;;;;;2.67;1.77;;;;;;;-2.91;79.56;97150.50;6104348;29;20416;-67
2023/12/22 01:24:26;;;;;;;2.72;1.90;;;;;;;-2.96;80.48;97149.69;6103318;29;20044;-66
2023/12/22 01:27:29;;;;;;;3.03;2.10;;;;;;;-2.97;79.94;97160.88;6104303;29;20447;-67
2023/12/22 01:30:33;;;;;;;4.82;2.22;;;;;;;-2.79;79.75;97165.00;6104062;29;20418;-66
2023/12/22 01:33:40;;;;;;;2.45;1.60;;;;;;;-2.88;80.16;97159.94;6104050;29;20079;-67
2023/12/22 01:36:41;;;;;;;3.13;1.30;;;;;;;-2.77;80.18;97153.00;6103774;29;20047;-66
2023/12/22 01:39:46;;;;;;;5.05;2.42;;;;;;;-2.77;79.76;97169.28;6103278;29;20051;-66
2023/12/22 01:42:49;;;;;;;3.40;2.60;;;;;;;-2.84;79.99;97157.31;6103327;29;20047;-66
2023/12/22 01:46:01;;;;;;;2.97;2.00;;;;;;;-2.94;80.40;97160.84;6104004;29;20519;-66
2023/12/22 01:49:08;;;;;;;2.97;2.05;;;;;;;-2.75;79.84;97158.97;6103488;29;20056;-67
2023/12/22 01:52:12;;;;;;;2.00;1.58;;;;;;;-2.81;79.46;97146.13;6102854;29;20486;-66
2023/12/22 01:55:17;;;;;;;3.53;2.05;;;;;;;-2.86;80.21;97153.91;6086679;29;20052;-66
2023/12/22 01:58:23;;;;;;;2.95;1.85;;;;;;;-3.01;80.52;97154.00;6103103;29;20502;-66
2023/12/22 02:01:28;;;;;;;2.95;1.17;;;;;;;-2.95;80.63;97151.38;6078215;29;20052;-66
2023/12/22 02:04:31;;;;;;;1.50;1.20;;;;;;;-2.81;80.34;97143.56;6079797;29;20052;-66
2023/12/22 02:07:33;;;;;;;3.10;1.90;;;;;;;-2.78;80.38;97146.97;6079700;29;20057;-66
2023/12/22 02:10:35;;;;;;;2.67;1.80;;;;;;;-2.84;80.28;97170.19;6079236;29;20055;-66
2023/12/22 02:13:36;;;;;;;1.77;1.30;;;;;;;-2.82;80.26;97150.44;6078004;29;20047;-66
2023/12/22 02:16:55;;;;;;;1.23;1.13;;;;;;;-2.80;80.62;97163.28;6079716;29;20041;-67
2023/12/22 02:19:58;;;;;;;3.85;2.42;;;;;;;-2.95;80.37;97164.25;6078915;29;20052;-66
2023/12/22 02:23:00;;;;;;;4.75;2.33;;;;;;;-2.96;80.94;97167.72;6079035;29;20048;-66
2023/12/22 02:26:22;;;;;;;4.20;2.63;;;;;;;-3.07;80.92;97154.06;6079158;29;20224;-67
2023/12/22 02:29:26;;;;;;;3.90;2.53;;;;;;;-2.92;80.63;97169.38;6077949;29;20048;-67
2023/12/22 02:32:36;;;;;;;2.30;1.60;;;;;;;-2.83;80.43;97173.63;6078896;29;20048;-67
2023/12/22 02:35:41;;;;;;;5.82;3.38;;;;;;;-2.98;80.59;97164.28;6077556;29;20414;-67
2023/12/22 02:38:46;;;;;;;5.43;3.45;;;;;;;-3.14;80.86;97183.25;6078792;29;20052;-67
2023/12/22 02:41:49;;;;;;;3.90;2.85;;;;;;;-3.18;80.91;97172.13;6078516;29;20131;-66
2023/12/22 02:44:53;;;;;;;4.75;3.58;;;;;;;-2.87;80.77;97175.34;6078775;29;20147;-66
2023/12/22 02:47:59;;;;;;;2.92;2.20;;;;;;;-2.71;80.68;97161.50;6078949;29;20049;-67
2023/12/22 02:51:03;;;;;;;6.47;3.83;;;;;;;-2.92;80.98;97159.09;6077642;29;20048;-66
2023/12/22 02:54:05;;;;;;;5.97;3.35;;;;;;;-2.90;80.94;97154.78;6078764;29;20527;-66
2023/12/22 02:57:11;;;;;;;6.30;3.78;;;;;;;-2.91;81.13;97155.66;6077730;29;20049;-65
2023/12/22 03:00:12;;;;;;;6.18;4.85;;;;;;;-2.95;81.34;97159.09;6085507;29;20447;-66
2023/12/22 03:03:17;;;;;;;6.32;4.50;;;;;;;-2.93;81.76;97141.94;6101502;29;20060;-66
2023/12/22 03:06:21;;;;;;;5.78;4.20;;;;;;;-2.87;81.83;97157.34;6102286;29;20051;-66
2023/12/22 03:09:23;;;;;;;7.82;4.70;;;;;;;-2.85;81.39;97160.75;6101138;29;20187;-67
2023/12/22 03:12:27;;;;;;;7.40;4.18;;;;;;;-2.78;81.55;97151.25;6102084;29;20044;-65
2023/12/22 03:15:28;;;;;;;5.32;4.75;;;;;;;-2.76;81.78;97136.66;6101013;29;20541;-67
2023/12/22 03:18:34;;;;;;;8.18;5.50;;;;;;;-2.71;81.56;97140.91;6069877;29;20044;-66
2023/12/22 03:21:35;;;;;;;8.48;5.85;;;;;;;-2.74;81.88;97143.50;6101560;29;20044;-66
2023/12/22 03:24:40;;;;;;;7.15;5.05;;;;;;;-2.62;82.05;97146.84;6100886;29;20048;-66
2023/12/22 03:27:44;;;;;;;9.45;6.32;;;;;;;-2.56;82.55;97141.63;6101352;29;20207;-66
2023/12/22 03:30:50;;;;;;;7.32;4.93;;;;;;;-2.30;82.78;97149.13;6101096;29;20048;-66
2023/12/22 03:33:54;;;;;;;7.60;5.38;;;;;;;-2.19;82.73;97131.81;6100533;29;20052;-66
2023/12/22 03:36:56;;;;;;;8.07;5.20;;;;;;;-2.06;82.45;97145.47;6100363;29;20054;-66
2023/12/22 03:40:03;;;;;;;7.05;4.50;;;;;;;-1.94;82.44;97139.31;6100982;29;20048;-66
2023/12/22 03:43:06;;;;;;;6.43;4.50;;;;;;;-1.75;82.18;97142.53;6100599;29;20051;-67
2023/12/22 03:46:11;;;;;;;4.35;3.33;;;;;;;-1.62;82.09;97133.75;6099777;29;20572;-67
2023/12/22 03:49:16;;;;;;;5.03;3.58;;;;;;;-1.55;82.05;97130.25;6100967;29;20348;-66
2023/12/22 03:52:19;;;;;;;5.13;3.85;;;;;;;-1.37;81.91;97142.88;6100841;29;20040;-66
2023/12/22 03:55:21;;;;;;;4.43;3.53;;;;;;;-1.29;82.08;97141.94;6100070;29;20533;-67
2023/12/22 03:58:29;;;;;;;4.18;3.35;;;;;;;-1.24;81.98;97129.81;6084278;29;20044;-66
2023/12/22 04:01:33;;;;;;;5.00;3.55;;;;;;;-1.19;82.18;97165.03;6100289;29;20052;-66
2023/12/22 04:04:38;;;;;;;3.85;2.95;;;;;;;-0.99;81.83;97146.66;6083210;29;20058;-65
2023/12/22 04:07:42;;;;;;;3.95;2.88;;;;;;;-0.93;82.26;97151.75;6100240;29;20048;-67
2023/12/22 04:10:44;;;;;;;7.10;4.03;;;;;;;-1.11;82.53;97167.50;6100235;29;20048;-67
2023/12/22 04:13:48;;;;;;;7.05;3.58;;;;;;;-0.89;81.59;97154.28;6099728;29;20052;-66
2023/12/22 04:16:52;;;;;;;3.88;3.13;;;;;;;-0.92;82.35;97157.75;6100603;29;20477;-66
2023/12/22 04:19:57;;;;;;;6.60;4.97;;;;;;;-1.01;82.29;97158.75;6099286;29;20069;-66
2023/12/22 04:22:59;;;;;;;7.28;4.43;;;;;;;-0.85;82.25;97156.81;6099100;29;20454;-67
2023/12/22 04:26:02;;;;;;;4.60;2.75;;;;;;;-0.83;81.99;97149.00;6099611;29;20143;-67
2023/12/22 04:29:08;;;;;;;9.07;5.85;;;;;;;-0.95;82.75;97148.31;6100326;29;20040;-66
2023/12/22 04:32:12;;;;;;;5.85;4.25;;;;;;;-0.89;82.62;97155.13;6099660;29;20070;-66
2023/12/22 04:35:18;;;;;;;9.05;4.75;;;;;;;-0.87;82.63;97142.19;6100185;29;20048;-67
2023/12/22 04:38:22;;;;;;;7.22;4.82;;;;;;;-0.83;82.38;97138.69;6099978;29;20516;-66
2023/12/22 04:41:23;;;;;;;6.55;4.13;;;;;;;-0.67;82.03;97142.72;6099529;29;20522;-67
2023/12/22 04:44:28;;;;;;;7.50;4.30;;;;;;;-0.71;82.65;97162.59;6099226;29;20052;-67
2023/12/22 04:47:31;;;;;;;13.13;6.68;;;;;;;-0.95;82.50;97138.00;6099300;29;20052;-68
2023/12/22 04:50:37;;;;;;;11.30;5.88;;;;;;;-0.76;83.01;97154.06;6099862;29;20052;-67
2023/12/22 04:53:41;;;;;;;11.60;5.95;;;;;;;-0.83;83.21;97157.59;6099785;29;20036;-67
2023/12/22 04:56:45;;;;;;;18.92;8.57;;;;;;;-0.83;83.33;97161.94;6082183;29;20147;-67
2023/12/22 04:59:52;;;;;;;13.95;6.65;;;;;;;-0.78;83.17;97171.31;6099299;29;20101;-67
2023/12/22 05:02:56;;;;;;;11.15;6.30;;;;;;;-0.80;82.58;97172.22;6099114;29;20052;-67
2023/12/22 05:05:58;;;;;;;18.05;7.07;;;;;;;-0.84;82.58;97170.56;6082319;29;20176;-66
2023/12/22 05:09:02;;;;;;;26.13;10.38;;;;;;;-0.86;82.80;97173.16;6099282;29;20048;-65
2023/12/22 05:12:04;;;;;;;16.92;7.82;;;;;;;-0.82;82.99;97169.66;6098902;29;20071;-67
2023/12/22 05:15:06;;;;;;;21.63;9.85;;;;;;;-0.75;82.33;97170.41;6098561;29;20078;-67
2023/12/22 05:18:10;;;;;;;25.08;10.23;;;;;;;-0.75;82.33;97160.09;6099012;29;20048;-66
2023/12/22 05:21:15;;;;;;;23.65;11.30;;;;;;;-0.78;82.79;97144.63;6098424;29;20051;-66
2023/12/22 05:24:18;;;;;;;28.55;12.25;;;;;;;-0.74;82.85;97151.44;6081857;29;20475;-65
2023/12/22 05:27:21;;;;;;;26.55;11.05;;;;;;;-0.99;82.22;97140.63;6098482;29;20187;-66
2023/12/22 05:30:25;;;;;;;23.05;11.43;;;;;;;-0.66;81.76;97164.25;6099309;29;20048;-66
2023/12/22 05:33:26;;;;;;;26.40;11.80;;;;;;;-0.67;82.04;97142.72;6098559;29;20549;-67
2023/12/22 05:36:28;;;;;;;26.58;12.55;;;;;;;-0.63;82.38;97138.34;6098101;29;20146;-67
2023/12/22 05:39:34;;;;;;;31.17;13.02;;;;;;;-0.69;82.24;97136.72;6099229;29;20052;-66
2023/12/22 05:42:39;;;;;;;29.67;13.48;;;;;;;-0.71;82.25;97146.22;6098751;29;20052;-66
2023/12/22 05:45:45;;;;;;;22.40;9.63;;;;;;;-0.59;82.62;97158.13;6099250;29;20048;-66
2023/12/22 05:48:49;;;;;;;30.10;13.05;;;;;;;-0.56;82.69;97156.34;6102374;29;20045;-67
2023/12/22 05:51:51;;;;;;;19.95;8.98;;;;;;;-0.58;82.70;97158.09;6102782;29;20052;-65
2023/12/22 05:54:58;;;;;;;21.67;9.90;;;;;;;-0.48;81.96;97174.31;6103340;29;20074;-67
2023/12/22 05:58:02;;;;;;;21.23;10.32;;;;;;;-0.52;82.16;97147.63;6102792;29;20051;-68
2023/12/22 06:01:03;;;;;;;;;;;;;;;-0.41;82.54;97154.38;6078927;29;20139;-67
2023/12/22 06:04:10;;;;;;;19.65;8.98;;;;;;;-0.62;82.39;97156.44;6079982;29;19986;-67
2023/12/22 06:07:15;;;;;;;11.52;6.82;;;;;;;-0.41;82.02;97170.72;6079652;29;20057;-66
2023/12/22 06:10:16;;;;;;;11.98;6.75;;;;;;;-0.39;82.22;97163.81;6079107;29;20537;-66
2023/12/22 06:13:18;;;;;;;11.55;6.93;;;;;;;-0.37;81.51;97150.84;6079408;29;20085;-67
2023/12/22 06:16:20;;;;;;;10.60;5.15;;;;;;;-0.37;82.01;97143.09;6079480;29;20142;-67
2023/12/22 06:19:28;;;;;;;12.00;6.18;;;;;;;-0.35;81.10;97159.44;6080047;29;20121;-67
2023/12/22 06:22:29;;;;;;;12.05;6.50;;;;;;;-0.38;81.64;97149.16;6079079;29;20063;-67
2023/12/22 06:25:31;;;;;;;17.48;8.70;;;;;;;-0.50;81.78;97151.06;6079123;29;20052;-67
2023/12/22 06:28:36;;;;;;;14.80;7.72;;;;;;;-0.36;81.60;97126.72;6078625;29;20053;-66
2023/12/22 06:31:40;;;;;;;12.77;6.47;;;;;;;-0.29;80.94;97159.31;6078770;29;20056;-66
2023/12/22 06:34:43;;;;;;;;;;;;;;;-0.17;80.54;97147.91;6078989;29;20053;-66
2023/12/22 06:37:46;;;;;;;15.57;6.80;;;;;;;-0.18;80.00;97141.88;6079542;29;19954;-66
2023/12/22 06:40:50;;;;;;;16.38;8.95;;;;;;;-0.24;80.38;97142.84;6079238;29;20478;-67
2023/12/22 06:43:59;;;;;;;15.13;7.50;;;;;;;-0.10;80.27;97134.84;6078989;29;20052;-67
2023/12/22 06:47:06;;;;;;;16.45;7.47;;;;;;;0.04;79.01;97118.22;6078907;29;20048;-68
2023/12/22 06:50:08;;;;;;;10.52;5.97;;;;;;;0.20;77.98;97127.41;6078415;29;20075;-67
2023/12/22 06:53:11;;;;;;;10.82;5.55;;;;;;;0.13;77.33;97133.56;6078488;29;20431;-66
2023/12/22 06:56:21;;;;;;;10.73;5.28;;;;;;;0.11;77.31;97104.25;6078473;29;20542;-67
2023/12/22 06:59:22;;;;;;;9.00;4.55;;;;;;;0.16;76.76;97102.44;6077499;29;20148;-66
2023/12/22 07:02:24;;;;;;;8.48;4.80;;;;;;;0.16;77.37;97113.63;6101455;29;20076;-66
2023/12/22 07:05:32;;;;;;;8.38;3.65;;;;;;;0.43;76.32;97104.47;6101420;29;20079;-65
2023/12/22 07:08:37;;;;;;;8.02;4.00;;;;;;;0.42;76.34;97107.06;6101198;29;20074;-67
2023/12/22 07:11:49;;;;;;;5.50;2.97;;;;;;;0.44;76.56;97095.81;6101969;29;20514;-67
2023/12/22 07:14:55;;;;;;;5.78;3.17;;;;;;;0.53;76.66;97104.28;6101424;29;20048;-66
2023/12/22 07:17:57;;;;;;;3.13;1.30;;;;;;;0.68;75.65;97101.38;6101662;29;20067;-66
2023/12/22 07:21:00;;;;;;;2.53;1.50;;;;;;;0.70;75.47;97112.53;6100736;29;20055;-66
2023/12/22 07:24:01;;;;;;;0.77;0.73;;;;;;;0.76;75.59;97083.88;6100724;29;20450;-66
2023/12/22 07:27:04;;;;;;;1.35;1.00;;;;;;;1.25;75.12;97094.88;6101276;29;20078;-65
2023/12/22 07:30:05;;;;;;;1.92;1.00;;;;;;;1.51;74.05;97083.84;6099815;29;20075;-67
2023/12/22 07:33:08;;;;;;;1.98;1.23;;;;;;;1.76;71.66;97078.88;6100746;29;20147;-66
2023/12/22 07:36:13;;;;;;;0.80;0.57;;;;;;;1.65;70.39;97079.16;6101360;29;20051;-67
2023/12/22 07:39:19;;;;;;;1.23;0.60;;;;;;;1.45;70.98;97078.81;6100485;29;20059;-66
2023/12/22 07:42:24;;;;;;;0.90;0.68;;;;;;;1.27;71.93;97086.13;6100717;29;20083;-66
2023/12/22 07:45:26;;;;;;;0.57;0.57;;;;;;;1.34;71.27;97085.09;6100667;29;20048;-66
2023/12/22 07:48:32;;;;;;;0.60;0.60;;;;;;;1.20;71.66;97082.00;6100245;29;20345;-66
2023/12/22 07:51:36;;;;;;;0.45;0.43;;;;;;;1.25;72.36;97074.13;6100340;29;20195;-66
2023/12/22 07:54:37;;;;;;;0.40;0.40;;;;;;;1.48;71.48;97070.97;6099705;29;20427;-67
2023/12/22 07:57:39;;;;;;;0.73;0.60;;;;;;;2.43;70.29;97096.88;6099956;29;20063;-67
2023/12/22 08:00:43;;;;;;;0.30;0.30;;;;;;;4.67;64.09;97071.16;6101067;29;20055;-67
2023/12/22 08:03:46;;;;;;;0.80;0.32;;;;;;;5.55;60.07;97076.38;6100649;29;20051;-66
2023/12/22 08:06:51;;;;;;;0.98;0.50;;;;;;;5.79;58.04;97046.63;6099767;29;20056;-66
2023/12/22 08:09:53;;;;;;;0.50;0.30;;;;;;;5.60;56.87;97057.00;6099698;29;20581;-66
2023/12/22 08:12:54;;;;;;;0.60;0.30;;;;;;;5.82;56.22;97062.16;6100116;29;20191;-67
2023/12/22 08:15:56;;;;;;;0.30;0.28;;;;;;;5.65;54.74;97071.63;6099229;29;20108;-67
2023/12/22 08:18:57;;;;;;;0.30;0.20;;;;;;;4.92;55.28;97061.50;6098676;29;20048;-66
2023/12/22 08:21:58;;;;;;;0.80;0.50;;;;;;;4.60;56.07;97054.09;6099623;29;20143;-65
2023/12/22 08:25:02;;;;;;;0.25;0.25;;;;;;;4.37;56.76;97053.19;6099466;29;20146;-66
2023/12/22 08:28:08;;;;;;;0.30;0.20;;;;;;;4.19;56.54;97051.25;6099685;29;20052;-67
2023/12/22 08:31:12;;;;;;;0.35;0.35;;;;;;;6.15;53.90;97056.41;6083398;29;20048;-66
2023/12/22 08:34:13;;;;;;;0.30;0.30;;;;;;;9.06;46.22;97034.88;6099011;29;20052;-66
2023/12/22 08:37:17;;;;;;;0.40;0.30;;;;;;;8.92;44.37;97039.16;6099873;29;20052;-66
2023/12/22 08:40:25;;;;;;;1.17;0.60;;;;;;;7.56;46.07;97049.78;6099329;29;20056;-66
2023/12/22 08:43:28;;;;;;;0.40;0.40;;;;;;;7.79;46.52;97029.44;6083461;29;20056;-67
2023/12/22 08:46:33;;;;;;;0.30;0.30;;;;;;;10.03;41.93;97059.91;6099265;29;20059;-66
2023/12/22 08:49:37;;;;;;;0.20;0.20;;;;;;;10.92;38.92;97038.66;6099124;29;20052;-67
2023/12/22 08:52:38;;;;;;;;;;;;;;;11.05;38.06;97028.19;6099261;29;20462;-66
2023/12/22 08:55:40;;;;;;;0.40;0.25;;;;;;;11.22;37.76;97014.78;6083095;29;19923;-67
2023/12/22 08:58:42;;;;;;;0.30;0.20;;;;;;;11.91;36.98;97006.72;6099101;29;20048;-66
2023/12/22 09:01:49;;;;;;;0.52;0.30;;;;;;;12.35;35.75;97022.13;6099439;29;20064;-66
2023/12/22 09:04:55;;;;;;;0.63;0.50;;;;;;;12.10;35.55;97006.31;6099701;29;20048;-67
2023/12/22 09:07:57;;;;;;;0.20;0.20;;;;;;;12.01;36.14;96999.88;6098739;29;20076;-65
2023/12/22 09:10:58;;;;;;;0.30;0.17;;;;;;;12.40;35.51;97000.72;6099134;29;20589;-66
2023/12/22 09:13:59;;;;;;;0.13;0.13;;;;;;;13.19;35.20;97001.22;6099351;29;20052;-67
2023/12/22 09:17:03;;;;;;;;;;;;;;;14.28;34.38;96996.50;6100058;29;20048;-65
2023/12/22 09:20:05;;;;;;;0.45;0.30;;;;;;;12.77;35.62;96985.75;6099368;29;19938;-66
2023/12/22 09:23:10;;;;;;;0.47;0.32;;;;;;;11.22;38.20;96983.16;6102148;29;20052;-66
2023/12/22 09:26:11;;;;;;;3.35;1.63;;;;;;;9.16;42.10;96980.94;6103298;29;20052;-66
2023/12/22 09:29:12;;;;;;;0.32;0.22;;;;;;;8.34;44.31;96979.34;6086768;29;20092;-66
2023/12/22 09:32:16;;;;;;;1.17;0.52;;;;;;;7.60;45.90;96977.97;6104153;29;20039;-67
2023/12/22 09:35:18;;;;;;;0.98;0.30;;;;;;;6.07;48.10;96983.59;6103313;29;20131;-66
2023/12/22 09:38:22;;;;;;;0.77;0.40;;;;;;;4.63;51.08;96973.16;6103078;29;20052;-66
2023/12/22 09:41:24;;;;;;;1.02;0.40;;;;;;;3.45;54.87;96973.19;6102921;29;20064;-68
2023/12/22 09:44:32;;;;;;;0.68;0.30;;;;;;;2.97;57.10;96992.16;6102967;29;20055;-67
2023/12/22 09:47:37;;;;;;;0.63;0.30;;;;;;;2.54;58.18;96971.91;6102937;29;20075;-67
2023/12/22 09:50:41;;;;;;;0.88;0.40;;;;;;;2.47;58.86;96971.25;6102834;29;20457;-66
2023/12/22 09:53:45;;;;;;;;;;;;;;;2.49;58.81;96974.63;6103074;29;20112;-64
2023/12/22 09:56:53;;;;;;;0.38;0.25;;;;;;;2.16;59.92;96979.13;6103230;29;19923;-66
2023/12/22 10:00:00;;;;;;;0.30;0.30;;;;;;;2.06;59.81;96970.75;6103105;29;20458;-67
2023/12/22 10:03:11;;;;;;;0.70;0.60;;;;;;;2.14;59.36;96979.16;6103161;29;20516;-65
2023/12/22 10:06:13;;;;;;;0.10;0.10;;;;;;;1.92;59.19;96965.97;6102567;29;20139;-68
2023/12/22 10:09:16;;;;;;;0.43;0.20;;;;;;;1.65;60.28;96959.84;6102108;29;20135;-66
2023/12/22 10:12:21;;;;;;;0.28;0.28;;;;;;;1.65;60.60;96980.59;6102374;29;20192;-67
2023/12/22 10:15:25;;;;;;;0.25;0.25;;;;;;;1.38;61.26;96984.75;6102719;29;20063;-67
2023/12/22 10:18:27;;;;;;;0.10;0.10;;;;;;;1.39;60.35;96977.84;6102086;29;20044;-67
2023/12/22 10:21:33;;;;;;;0.20;0.20;;;;;;;1.03;61.33;96975.31;6102982;29;20052;-67
2023/12/22 10:24:43;;;;;;;0.30;0.30;;;;;;;0.65;63.19;96969.34;6102894;29;20532;-67
2023/12/22 10:27:44;;;;;;;0.20;0.20;;;;;;;0.64;64.21;96946.94;6102790;29;20060;-67
2023/12/22 10:30:49;;;;;;;0.20;0.20;;;;;;;0.58;64.70;96944.50;6102072;29;20048;-68
2023/12/22 10:33:53;;;;;;;0.77;0.40;;;;;;;0.19;66.45;96949.72;6101574;29;20698;-67
2023/12/22 10:36:55;;;;;;;0.43;0.43;;;;;;;-0.10;66.97;96943.44;6101953;29;20131;-67
2023/12/22 10:39:58;;;;;;;1.75;0.90;;;;;;;-0.10;67.60;96940.00;6102587;29;20048;-66
2023/12/22 10:43:00;;;;;;;0.90;0.47;;;;;;;-0.26;67.69;96929.13;6101611;29;20434;-67
2023/12/22 10:46:11;;;;;;;1.55;0.70;;;;;;;-0.25;68.50;96936.88;6102332;29;20063;-67
2023/12/22 10:49:17;;;;;;;0.68;0.68;;;;;;;-0.72;69.25;96940.41;6102239;29;20044;-67
2023/12/22 10:52:20;;;;;;;1.00;0.80;;;;;;;-0.70;70.07;96942.06;6102318;29;20040;-66
2023/12/22 10:55:25;;;;;;;1.80;0.98;;;;;;;-0.76;70.25;96934.44;6102187;29;20448;-67
2023/12/22 10:58:29;;;;;;;1.45;1.35;;;;;;;-0.77;70.20;96926.72;6101462;29;20052;-67
2023/12/22 11:01:33;;;;;;;;;;;;;;;-0.79;70.18;96931.94;6053951;29;20572;-65
2023/12/22 11:04:37;;;;;;;3.77;1.67;;;;;;;-0.85;70.38;96926.88;6054970;29;20466;-67
2023/12/22 11:07:54;;;;;;;1.45;1.33;;;;;;;-1.02;71.35;96937.53;6055560;29;20049;-68
2023/12/22 11:11:02;;;;;;;3.63;2.00;;;;;;;-0.89;70.27;96929.53;6054725;29;20057;-68
2023/12/22 11:14:07;;;;;;;3.35;2.53;;;;;;;-1.27;71.52;96929.34;6038379;29;20059;-67
2023/12/22 11:17:11;;;;;;;3.72;1.98;;;;;;;-1.31;72.63;96906.19;6055235;29;20441;-67
2023/12/22 11:20:16;;;;;;;2.60;1.48;;;;;;;-1.26;72.45;96914.72;6054993;29;20529;-66
2023/12/22 11:23:19;;;;;;;2.42;1.95;;;;;;;-1.14;71.10;96881.75;6054797;29;20052;-67
2023/12/22 11:26:26;;;;;;;6.47;2.85;;;;;;;-1.01;71.13;96923.72;6054698;29;20185;-67
2023/12/22 11:29:31;;;;;;;5.38;3.03;;;;;;;-1.11;71.68;96923.91;6054737;29;20045;-67
2023/12/22 11:32:34;;;;;;;8.45;3.95;;;;;;;-1.16;71.97;96914.53;6053575;29;20643;-67
2023/12/22 11:35:39;;;;;;;5.60;2.88;;;;;;;-1.12;71.33;96912.72;6054531;29;20056;-67
2023/12/22 11:38:46;;;;;;;6.13;3.42;;;;;;;-1.13;71.80;96895.56;6054563;29;20068;-68
2023/12/22 11:41:52;;;;;;;9.13;4.40;;;;;;;-1.54;72.50;96910.00;6054381;29;20532;-68
2023/12/22 11:44:58;;;;;;;7.63;3.97;;;;;;;-1.43;72.96;96902.94;6053622;29;20423;-67
2023/12/22 11:48:10;;;;;;;8.20;4.22;;;;;;;-1.66;74.16;96902.47;6053740;29;20052;-67
2023/12/22 11:51:14;;;;;;;8.45;4.15;;;;;;;-1.67;74.51;96898.19;6054187;29;20056;-67
2023/12/22 11:54:48;;;;;;;9.88;5.50;;;;;;;-1.75;74.83;96920.69;6053968;29;20509;-67
2023/12/22 11:57:53;;;;;;;11.52;5.50;;;;;;;-1.73;74.18;96893.13;6054062;29;20053;-66
2023/12/22 12:01:00;;;;;;;10.60;5.80;;;;;;;-1.79;74.52;96888.06;6078347;29;20063;-66
2023/12/22 12:04:07;;;;;;;4.53;3.03;;;;;;;-1.82;74.78;96887.22;6099676;29;20217;-68
2023/12/22 12:07:39;;;;;;;9.60;5.63;;;;;;;-1.79;74.04;96898.38;6099687;29;20060;-67
2023/12/22 12:10:49;;;;;;;6.75;4.80;;;;;;;-1.73;75.06;96913.75;6100008;29;20091;-68
2023/12/22 12:13:50;;;;;;;9.52;5.50;;;;;;;-1.81;74.86;96909.59;6099212;29;20549;-66
2023/12/22 12:17:05;;;;;;;9.93;6.13;;;;;;;-1.71;74.54;96893.97;6100237;29;20494;-67
2023/12/22 12:20:11;;;;;;;12.23;5.90;;;;;;;-1.81;75.42;96883.78;6099616;29;20119;-67
2023/12/22 12:23:12;;;;;;;9.95;4.97;;;;;;;-1.73;75.08;96880.22;6099839;29;20175;-67
2023/12/22 12:26:19;;;;;;;7.57;5.05;;;;;;;-1.49;74.10;96885.00;6100009;29;20145;-67
2023/12/22 12:29:21;;;;;;;;;;;;;;;-1.46;74.56;96879.78;6099892;29;20056;-66
2023/12/22 12:32:27;;;;;;;;;;;;;;;-1.42;73.81;96885.72;6100342;29;19927;-66
2023/12/22 12:35:31;;;;;;;8.90;4.63;;;;;;;-1.77;74.32;96860.53;6099304;29;19962;-67
2023/12/22 12:38:55;;;;;;;8.07;4.95;;;;;;;-1.74;74.27;96865.63;6099524;29;20052;-67
2023/12/22 12:41:59;;;;;;;7.28;3.88;;;;;;;-1.75;74.68;96866.53;6100580;29;20504;-66
2023/12/22 12:45:05;;;;;;;8.27;3.40;;;;;;;-1.63;73.95;96868.88;6099947;29;20396;-67
2023/12/22 12:48:15;;;;;;;5.53;3.60;;;;;;;-1.79;73.91;96867.44;6098785;29;20068;-67
2023/12/22 12:51:19;;;;;;;4.88;3.28;;;;;;;-1.67;74.36;96856.91;6098949;29;20059;-66
2023/12/22 12:54:23;;;;;;;1.67;1.58;;;;;;;-1.47;72.98;96867.75;6099294;29;20434;-67
2023/12/22 12:57:27;;;;;;;3.22;2.13;;;;;;;-1.59;72.42;96870.53;6102165;29;20059;-68
2023/12/22 13:00:32;;;;;;;5.03;1.67;;;;;;;-1.36;71.42;96873.59;6103342;29;20146;-67
2023/12/22 13:03:51;;;;;;;3.38;2.10;;;;;;;-1.46;71.75;96871.19;6104123;29;20434;-68
2023/12/22 13:06:58;;;;;;;2.63;1.95;;;;;;;-1.56;72.14;96860.16;6103646;29;20141;-68
2023/12/22 13:10:00;;;;;;;3.45;2.33;;;;;;;-1.68;72.58;96860.38;6103996;29;20052;-66
2023/12/22 13:13:02;;;;;;;4.82;2.08;;;;;;;-1.52;72.66;96877.31;6103645;29;20533;-68
2023/12/22 13:16:05;;;;;;;6.78;3.50;;;;;;;-1.67;72.77;96872.38;6103806;29;20056;-67
2023/12/22 13:19:11;;;;;;;6.18;2.13;;;;;;;-1.66;73.49;96884.44;6087236;29;20669;-69
2023/12/22 13:22:14;;;;;;;5.82;3.25;;;;;;;-1.66;73.58;96889.59;6103762;29;20849;-68
2023/12/22 13:25:18;;;;;;;7.97;3.77;;;;;;;-1.44;73.15;96875.44;6103286;29;20185;-67
2023/12/22 13:28:27;;;;;;;4.53;3.00;;;;;;;-1.38;72.36;96864.16;6104201;29;20048;-67
2023/12/22 13:31:33;;;;;;;5.00;3.00;;;;;;;-1.37;71.97;96861.53;6102895;29;20048;-68
2023/12/22 13:34:46;;;;;;;4.32;2.80;;;;;;;-1.36;72.68;96868.41;6103672;29;20582;-68
2023/12/22 13:37:50;;;;;;;3.58;2.20;;;;;;;-1.42;72.78;96847.84;6103372;29;20569;-68
2023/12/22 13:40:54;;;;;;;1.90;1.52;;;;;;;-1.47;73.21;96854.84;6103192;29;20196;-68
2023/12/22 13:43:57;;;;;;;3.75;1.80;;;;;;;-1.42;72.48;96877.97;6103137;29;20047;-68
2023/12/22 13:47:05;;;;;;;5.43;2.47;;;;;;;-1.36;72.41;96873.59;6102716;29;20627;-68
2023/12/22 13:50:24;;;;;;;5.72;3.15;;;;;;;-1.40;72.69;96861.59;6103924;29;20052;-68
2023/12/22 13:53:28;;;;;;;4.75;2.78;;;;;;;-1.24;72.22;96869.06;6102934;29;20055;-68
2023/12/22 13:56:37;;;;;;;4.22;2.45;;;;;;;-1.23;71.86;96863.88;6103648;29;20043;-67
2023/12/22 13:59:41;;;;;;;4.18;2.20;;;;;;;-1.30;72.35;96851.97;6101900;29;20142;-67
2023/12/22 14:02:42;;;;;;;4.20;2.60;;;;;;;-1.37;72.23;96851.22;6102619;29;20059;-68
2023/12/22 14:05:44;;;;;;;9.70;3.78;;;;;;;-1.44;72.56;96844.47;6102252;29;20052;-68
2023/12/22 14:08:45;;;;;;;5.45;2.67;;;;;;;-1.47;72.50;96834.22;6101796;29;20067;-68
2023/12/22 14:11:49;;;;;;;4.72;2.70;;;;;;;-1.55;73.36;96848.97;6102568;29;20048;-67
2023/12/22 14:14:56;;;;;;;2.80;2.08;;;;;;;-1.59;73.19;96824.09;6103106;29;20052;-68
2023/12/22 14:17:58;;;;;;;6.05;3.40;;;;;;;-1.61;73.52;96831.03;6085393;29;20156;-68
2023/12/22 14:21:03;;;;;;;2.08;1.63;;;;;;;-1.41;73.04;96822.91;6102068;29;20427;-67
2023/12/22 14:24:06;;;;;;;2.22;1.80;;;;;;;-1.54;73.41;96824.84;6102042;29;20052;-67
2023/12/22 14:27:10;;;;;;;2.50;1.40;;;;;;;-1.50;74.17;96818.78;6102655;29;20048;-68
2023/12/22 14:30:11;;;;;;;;;;;;;;;-1.08;72.38;96816.25;6103100;29;20037;-67
2023/12/22 14:33:15;;;;;;;3.88;1.60;;;;;;;-1.38;72.54;96813.38;6102854;29;19923;-67